Ana Sayfa
METAR-TAF:

METAR-TAF

Havaalanları :

Zaporijya, Ukrayna

Zaporijya Uluslararası Havalimanı

Enlem: 47-52-02N, Boylam: 035-18-59E, yükseklik: 114 m

Güncel hava durumu gözlemi

Rapor saat 03:00 UTC de 16 dakika önce yapıldı.
Rüzgar kuzey/kuzeybatıdan 6 kt
Sıcaklık -14°C
Nem 92%
Basınç 1021 hPa
Görüş mesafesi 10 km veya daha fazla
1500 m altında bulut yok ve kümülonimbus yok

METAR: UKDE 260300Z 34003MPS CAVOK M14/M15 Q1021 R02/CLRD70 NOSIG

Saat: 05:16 (03:16 UTC)

Tahmin

Rapor saat 02:01 UTC de 1 saat ve 15 dakika önce yapıldı.
Ayın 26'si saat 03 UTC'den ayın 26'si saat 12 UTC'ye kadar geçerli Tahmin
Rüzgar kuzey/kuzeybatıdan 10 kt
Görüş mesafesi 10 km veya daha fazla
3000 ft yükseklikte parçalı bulutlu
Geçici
ayın 26'si saat 03 UTC'den ayın 26'si saat 06 UTC'ye kadar
Görüş mesafesi: 2100 m
700 ft yükseklikte parçalı çok bulutlu
Pus

TAF: UKDE 260201Z 2603/2612 34005MPS 9999 SCT030 TEMPO 2603/2606 2100 BR BKN007

4.000'den fazla havaalanı için hava durumu gözlemleri ve tahminleri (METAR ve TAF raporları).

Kullanılabilir istasyonlar harita üzerinde sarı ve kırmızı noktalarla gösterilir.

İstasyonun adını görmek için fareyi noktanın üzerinde gezdirin.

Sonrasında hava gözlem ve tahminlerini görmek için tıklayın.

Haritayı değiştirmek için: yaklaştırmak için siyah artı işaretli yeşil düğmeye ve uzaklaştırmak için de eksi işaretli düğmeye hızla tıklayın; bitişik haritalar için yeşil okları kullanın.


METAR-TAF: